Time;durP1;ratioP1;P1;durP2;ratioP2;P2;SDS_P1;SDS_P2;PMS_P1;PMS_P2;Temp;Humidity;BMP_temperature;BMP_pressure;BME280_temperature;BME280_humidity;BME280_pressure;Samples;Min_cycle;Max_cycle;Signal;HPM_P1;HPM_P2
2024/04/14 00:00:59;;;;;;;7.67;4.60;;;;;;;14.95;63.21;100433.38;5445173;26;20604;-68
2024/04/14 00:03:29;;;;;;;6.23;4.13;;;;;;;14.95;63.14;100429.03;5447696;26;20272;-66
2024/04/14 00:05:56;;;;;;;7.80;4.43;;;;;;;14.95;63.22;100421.25;5447837;26;20293;-68
2024/04/14 00:08:27;;;;;;;8.50;4.33;;;;;;;14.94;62.98;100423.84;5449865;26;20625;-68
2024/04/14 00:10:57;;;;;;;7.70;4.13;;;;;;;14.92;63.16;100410.94;5449259;26;20276;-69
2024/04/14 00:13:30;;;;;;;6.63;4.73;;;;;;;14.93;63.41;100419.56;5450999;26;20246;-66
2024/04/14 00:16:00;;;;;;;8.60;4.27;;;;;;;14.92;63.49;100415.28;5450176;26;20246;-68
2024/04/14 00:18:30;;;;;;;11.23;4.40;;;;;;;14.92;63.39;100413.53;5452070;26;20286;-67
2024/04/14 00:20:58;;;;;;;8.70;4.50;;;;;;;14.92;63.54;100418.72;5451483;26;20666;-67
2024/04/14 00:23:28;;;;;;;7.10;4.23;;;;;;;14.92;63.73;100420.47;5448349;26;20588;-68
2024/04/14 00:25:57;;;;;;;7.90;3.87;;;;;;;14.88;64.01;100416.22;5449617;26;20258;-66
2024/04/14 00:28:29;;;;;;;6.73;4.23;;;;;;;14.87;63.92;100401.53;5448620;26;20623;-66
2024/04/14 00:30:56;;;;;;;5.90;4.30;;;;;;;14.80;63.78;100405.16;5449250;26;20250;-69
2024/04/14 00:33:30;;;;;;;7.20;4.38;;;;;;;14.81;64.31;100401.69;5450705;26;20350;-67
2024/04/14 00:35:57;;;;;;;4.82;4.00;;;;;;;14.79;64.36;100390.50;5451012;26;20289;-65
2024/04/14 00:38:27;;;;;;;6.47;4.10;;;;;;;14.78;64.41;100402.59;5450814;26;20565;-67
2024/04/14 00:40:54;;;;;;;6.18;3.90;;;;;;;14.77;63.96;100393.13;5447142;26;20350;-68
2024/04/14 00:43:24;;;;;;;8.00;3.97;;;;;;;14.77;64.68;100387.94;5450687;26;20234;-67
2024/04/14 00:45:54;;;;;;;5.75;4.05;;;;;;;14.76;64.67;100381.03;5438798;26;20306;-67
2024/04/14 00:48:26;;;;;;;7.77;4.20;;;;;;;14.75;64.64;100379.34;5450402;26;20755;-68
2024/04/14 00:50:53;;;;;;;5.57;4.70;;;;;;;14.76;64.87;100390.56;5450189;26;20246;-68
2024/04/14 00:53:24;;;;;;;10.23;4.97;;;;;;;14.73;64.86;100384.56;5448333;26;20245;-67
2024/04/14 00:55:52;;;;;;;6.13;4.67;;;;;;;14.72;64.91;100382.84;5450118;26;20683;-67
2024/04/14 00:58:22;;;;;;;5.13;4.07;;;;;;;14.69;65.10;100371.69;5448294;26;20740;-67
2024/04/14 01:00:49;;;;;;;6.15;4.38;;;;;;;14.68;65.19;100367.38;5450579;26;20234;-67
2024/04/14 01:03:22;;;;;;;6.10;4.20;;;;;;;14.67;65.38;100370.88;5450917;26;20245;-67
2024/04/14 01:05:50;;;;;;;5.55;4.47;;;;;;;14.66;65.66;100362.25;5450410;26;20265;-67
2024/04/14 01:08:19;;;;;;;7.47;4.50;;;;;;;14.66;65.72;100353.63;5450413;26;20238;-65
2024/04/14 01:10:47;;;;;;;6.60;4.13;;;;;;;14.64;65.49;100350.19;5446902;26;20300;-66
2024/04/14 01:13:16;;;;;;;7.00;4.00;;;;;;;14.62;65.64;100347.66;5449991;26;20342;-68
2024/04/14 01:15:44;;;;;;;6.83;4.10;;;;;;;14.61;65.77;100350.25;5443692;26;20729;-67
2024/04/14 01:18:13;;;;;;;5.40;4.30;;;;;;;14.59;66.02;100346.88;5443062;26;20731;-66
2024/04/14 01:20:43;;;;;;;8.47;3.93;;;;;;;14.55;66.10;100343.50;5450097;26;20246;-68
2024/04/14 01:23:13;;;;;;;6.77;4.20;;;;;;;14.51;66.30;100349.66;5450170;26;20282;-68
2024/04/14 01:25:43;;;;;;;5.80;4.33;;;;;;;14.50;66.47;100356.53;5450696;26;20814;-66
2024/04/14 01:28:14;;;;;;;7.10;4.40;;;;;;;14.52;66.56;100350.50;5450082;26;20290;-68
2024/04/14 01:30:41;;;;;;;8.40;4.80;;;;;;;14.50;66.56;100348.75;5449281;26;20669;-67
2024/04/14 01:33:11;;;;;;;6.57;4.57;;;;;;;14.48;66.68;100353.13;5450034;26;20246;-67
2024/04/14 01:35:39;;;;;;;8.43;4.07;;;;;;;14.47;66.82;100347.94;5444647;26;20327;-68
2024/04/14 01:38:09;;;;;;;5.03;4.30;;;;;;;14.46;66.74;100335.88;5449195;26;20758;-69
2024/04/14 01:40:50;;;;;;;6.53;4.43;;;;;;;14.46;66.62;100334.13;5449937;26;20758;-68
2024/04/14 01:43:20;;;;;;;4.67;4.20;;;;;;;14.42;67.19;100327.31;5453606;26;20226;-70
2024/04/14 01:45:47;;;;;;;6.90;4.50;;;;;;;14.41;67.39;100320.44;5453017;26;20250;-67
2024/04/14 01:48:17;;;;;;;9.20;4.67;;;;;;;14.41;67.56;100322.19;5453521;26;20238;-66
2024/04/14 01:50:44;;;;;;;7.35;4.50;;;;;;;14.41;67.72;100323.03;5452692;26;20290;-68
2024/04/14 01:53:14;;;;;;;5.63;4.53;;;;;;;14.41;68.00;100322.19;5449835;26;20741;-67
2024/04/14 01:55:42;;;;;;;7.07;4.27;;;;;;;14.40;67.59;100308.38;5450253;26;20355;-65
2024/04/14 01:58:15;;;;;;;5.00;4.43;;;;;;;14.40;67.85;100298.00;5453432;26;20330;-62
2024/04/14 02:00:42;;;;;;;7.00;4.20;;;;;;;14.39;67.86;100301.47;5453286;26;20320;-61
2024/04/14 02:03:12;;;;;;;6.67;4.40;;;;;;;14.38;67.77;100291.97;5453038;26;20310;-67
2024/04/14 02:05:39;;;;;;;5.88;4.60;;;;;;;14.39;67.98;100301.47;5451544;26;20245;-67
2024/04/14 02:08:09;;;;;;;7.55;4.22;;;;;;;14.35;67.94;100294.66;5452934;26;20238;-67
2024/04/14 02:10:39;;;;;;;5.50;4.20;;;;;;;14.35;68.12;100291.19;5448734;26;20627;-67
2024/04/14 02:13:09;;;;;;;5.60;4.30;;;;;;;14.34;68.24;100289.50;5451943;26;20234;-69
2024/04/14 02:15:40;;;;;;;5.05;3.88;;;;;;;14.35;68.18;100286.88;5452794;26;20848;-67
2024/04/14 02:18:10;;;;;;;6.05;3.83;;;;;;;14.34;68.43;100280.00;5453440;26;20298;-68
2024/04/14 02:20:37;;;;;;;5.83;3.83;;;;;;;14.32;68.58;100286.09;5449664;26;20350;-65
2024/04/14 02:23:07;;;;;;;5.00;3.97;;;;;;;14.30;68.70;100277.50;5453054;26;20237;-66
2024/04/14 02:25:35;;;;;;;6.07;4.18;;;;;;;14.27;68.87;100258.53;5452255;26;20594;-67
2024/04/14 02:28:06;;;;;;;6.65;4.20;;;;;;;14.28;68.83;100269.75;5453140;26;20234;-68
2024/04/14 02:30:33;;;;;;;5.87;4.40;;;;;;;14.26;68.86;100271.53;5443657;26;20250;-69
2024/04/14 02:33:06;;;;;;;5.65;4.40;;;;;;;14.25;69.18;100264.66;5452610;26;20284;-68
2024/04/14 02:35:33;;;;;;;7.03;4.32;;;;;;;14.25;68.92;100255.16;5452557;26;20234;-66
2024/04/14 02:38:02;;;;;;;6.90;4.40;;;;;;;14.24;69.06;100250.81;5449831;26;20247;-68
2024/04/14 02:40:30;;;;;;;5.13;4.63;;;;;;;14.24;69.14;100247.38;5453174;26;20277;-68
2024/04/14 02:43:00;;;;;;;11.30;4.67;;;;;;;14.22;69.11;100249.19;5452681;26;21134;-68
2024/04/14 02:45:29;;;;;;;6.82;4.57;;;;;;;14.21;69.28;100247.44;5451048;26;20245;-67
2024/04/14 02:47:58;;;;;;;8.90;4.77;;;;;;;14.20;69.37;100243.16;5451913;26;20721;-69
2024/04/14 02:50:28;;;;;;;6.30;4.05;;;;;;;14.18;69.53;100242.38;5449535;26;20622;-66
2024/04/14 02:52:58;;;;;;;6.28;4.00;;;;;;;14.14;69.50;100240.69;5453061;26;20221;-67
2024/04/14 02:55:25;;;;;;;4.67;4.17;;;;;;;14.13;69.85;100234.69;5449897;26;20258;-68
2024/04/14 02:57:55;;;;;;;5.18;4.35;;;;;;;14.12;69.80;100230.38;5450413;26;21008;-68
2024/04/14 03:00:23;;;;;;;6.43;4.25;;;;;;;14.12;69.89;100221.75;5452243;26;20312;-66
2024/04/14 03:02:53;;;;;;;5.97;4.30;;;;;;;14.09;69.95;100230.44;5452628;26;20234;-67
2024/04/14 03:05:20;;;;;;;5.37;4.20;;;;;;;14.08;70.15;100222.72;5452481;26;20223;-69
2024/04/14 03:07:52;;;;;;;9.00;4.53;;;;;;;14.07;70.23;100219.28;5448354;26;20246;-65
2024/04/14 03:10:20;;;;;;;5.22;4.15;;;;;;;14.06;70.03;100217.56;5451859;26;20742;-62
2024/04/14 03:12:50;;;;;;;5.97;4.63;;;;;;;13.99;70.34;100190.97;5452087;26;20277;-63
2024/04/14 03:15:17;;;;;;;5.55;4.07;;;;;;;14.05;70.20;100209.84;5450066;26;20254;-62
2024/04/14 03:17:47;;;;;;;7.63;4.60;;;;;;;14.02;70.41;100201.22;5452486;26;20747;-62
2024/04/14 03:20:15;;;;;;;6.03;4.50;;;;;;;14.00;70.43;100197.00;5452151;26;20346;-64
2024/04/14 03:22:44;;;;;;;6.95;4.50;;;;;;;13.95;70.41;100181.53;5451895;26;20234;-63
2024/04/14 03:25:14;;;;;;;4.90;3.83;;;;;;;13.92;70.60;100173.00;5449464;26;20289;-64
2024/04/14 03:27:44;;;;;;;6.90;3.90;;;;;;;13.94;70.85;100176.41;5450094;26;20315;-62
2024/04/14 03:30:11;;;;;;;9.93;5.03;;;;;;;13.96;70.75;100178.09;5451725;26;20342;-62
2024/04/14 03:32:41;;;;;;;6.37;4.63;;;;;;;13.97;70.60;100181.53;5449681;26;20295;-62
2024/04/14 03:35:08;;;;;;;6.90;4.03;;;;;;;13.96;70.79;100174.66;5452078;26;20276;-63
2024/04/14 03:37:39;;;;;;;5.17;4.20;;;;;;;13.97;70.82;100174.59;5451733;26;20246;-63
2024/04/14 03:40:10;;;;;;;6.23;4.03;;;;;;;13.98;70.45;100172.84;5451962;26;20234;-61
2024/04/14 03:42:42;;;;;;;4.82;4.07;;;;;;;14.00;70.56;100171.09;5448985;26;20358;-62
2024/04/14 03:45:12;;;;;;;4.97;4.10;;;;;;;14.03;70.54;100173.63;5451730;26;20234;-63
2024/04/14 03:47:43;;;;;;;7.43;4.37;;;;;;;14.04;70.31;100171.88;5451278;26;20234;-62
2024/04/14 03:50:10;;;;;;;6.17;4.00;;;;;;;14.05;70.30;100163.19;5449375;26;20234;-63
2024/04/14 03:52:39;;;;;;;6.43;4.27;;;;;;;14.04;70.29;100156.31;5450950;26;20246;-63
2024/04/14 03:55:07;;;;;;;4.60;4.10;;;;;;;14.02;70.19;100152.00;5451391;26;20338;-61
2024/04/14 03:57:36;;;;;;;5.97;4.30;;;;;;;14.01;70.09;100142.53;5450051;26;20245;-64
2024/04/14 04:00:07;;;;;;;10.97;4.37;;;;;;;13.97;70.18;100134.88;5448950;26;20620;-61
2024/04/14 04:02:37;;;;;;;7.07;4.53;;;;;;;14.00;70.22;100134.81;5450222;26;20242;-63
2024/04/14 04:05:06;;;;;;;5.17;3.80;;;;;;;13.98;70.44;100126.22;5451889;26;20230;-64
2024/04/14 04:07:36;;;;;;;4.90;3.73;;;;;;;13.98;70.33;100121.88;5451296;26;20241;-64
2024/04/14 04:10:03;;;;;;;5.60;3.57;;;;;;;14.02;70.25;100118.31;5450984;26;20230;-62
2024/04/14 04:12:34;;;;;;;4.40;4.00;;;;;;;14.04;70.15;100113.13;5451311;26;20242;-63
2024/04/14 04:15:01;;;;;;;5.40;3.80;;;;;;;14.07;69.78;100110.47;5456706;26;20246;-62
2024/04/14 04:17:34;;;;;;;6.23;3.80;;;;;;;14.09;69.81;100100.06;5444371;26;20255;-67
2024/04/14 04:20:01;;;;;;;4.53;4.07;;;;;;;14.11;69.66;100106.91;5451255;26;20300;-67
2024/04/14 04:22:31;;;;;;;4.67;4.03;;;;;;;14.12;69.50;100098.25;5449532;26;20321;-67
2024/04/14 04:24:59;;;;;;;4.23;3.83;;;;;;;14.15;69.35;100092.13;5449162;26;20246;-66
2024/04/14 04:27:29;;;;;;;6.37;3.93;;;;;;;14.16;69.58;100094.69;5450562;26;20587;-67
2024/04/14 04:29:56;;;;;;;4.53;4.00;;;;;;;14.18;69.35;100087.72;5451177;26;20234;-67
2024/04/14 04:32:26;;;;;;;5.30;3.88;;;;;;;14.20;69.36;100095.44;5440339;26;20254;-66
2024/04/14 04:34:56;;;;;;;6.43;4.20;;;;;;;14.19;69.18;100091.16;5447198;26;20285;-66
2024/04/14 04:37:25;;;;;;;5.53;3.50;;;;;;;14.19;69.20;100078.22;5449787;26;20234;-68
2024/04/14 04:39:53;;;;;;;5.90;3.87;;;;;;;14.20;69.22;100074.72;5447713;26;20264;-66
2024/04/14 04:42:22;;;;;;;4.93;3.30;;;;;;;14.21;69.16;100087.66;5450357;26;20312;-68
2024/04/14 04:44:50;;;;;;;5.60;4.33;;;;;;;14.23;68.84;100085.00;5450445;26;20568;-66
2024/04/14 04:47:19;;;;;;;5.23;3.90;;;;;;;14.24;68.93;100072.00;5450561;26;20579;-68
2024/04/14 04:49:48;;;;;;;5.40;3.95;;;;;;;14.26;68.82;100070.22;5450914;26;20774;-69
2024/04/14 04:52:20;;;;;;;7.07;3.50;;;;;;;14.29;68.99;100068.47;5447090;26;20785;-66
2024/04/14 04:54:47;;;;;;;5.90;4.07;;;;;;;14.32;68.90;100058.84;5449427;26;20246;-67
2024/04/14 04:57:17;;;;;;;7.93;3.83;;;;;;;14.34;68.82;100057.06;5449857;26;20245;-66
2024/04/14 04:59:44;;;;;;;4.40;4.00;;;;;;;14.37;68.52;100059.59;5447255;26;20355;-68
2024/04/14 05:02:14;;;;;;;9.57;3.83;;;;;;;14.39;68.22;100054.34;5449777;26;20756;-67
2024/04/14 05:04:41;;;;;;;3.93;3.47;;;;;;;14.43;68.02;100056.84;5449798;26;20612;-67
2024/04/14 05:07:11;;;;;;;5.35;4.20;;;;;;;14.46;68.30;100056.72;5450130;26;20234;-68
2024/04/14 05:09:41;;;;;;;8.73;3.83;;;;;;;14.47;67.96;100045.47;5450340;26;20290;-66
2024/04/14 05:12:11;;;;;;;5.35;4.00;;;;;;;14.53;67.88;100054.84;5447051;26;20608;-67
2024/04/14 05:14:38;;;;;;;6.53;4.30;;;;;;;14.51;67.84;100041.09;5447301;26;20781;-68
2024/04/14 05:17:08;;;;;;;6.23;3.93;;;;;;;14.58;67.95;100042.63;5453395;26;20728;-67
2024/04/14 05:19:35;;;;;;;9.48;4.47;;;;;;;14.61;67.85;100039.06;5453407;26;20229;-71
2024/04/14 05:22:05;;;;;;;10.10;4.68;;;;;;;14.62;67.51;100041.66;5453537;26;20230;-66
2024/04/14 05:24:32;;;;;;;6.97;4.30;;;;;;;14.66;67.89;100032.88;5451962;26;20354;-70
2024/04/14 05:27:09;;;;;;;8.90;4.82;;;;;;;14.68;67.63;100031.06;5451169;26;20816;-69
2024/04/14 05:29:37;;;;;;;7.45;4.63;;;;;;;14.72;67.74;100026.66;5447226;26;20341;-63
2024/04/14 05:32:07;;;;;;;6.77;4.37;;;;;;;14.76;67.80;100032.59;5452954;26;20250;-63
2024/04/14 05:34:35;;;;;;;5.20;4.67;;;;;;;14.79;67.71;100035.97;5450003;26;20254;-61
2024/04/14 05:37:05;;;;;;;7.73;4.67;;;;;;;14.83;67.52;100029.78;5452704;26;20246;-64
2024/04/14 05:39:32;;;;;;;11.75;5.38;;;;;;;14.87;67.59;100036.56;5453770;26;20278;-62
2024/04/14 05:42:02;;;;;;;5.53;4.60;;;;;;;14.91;67.48;100029.56;5450556;26;20241;-63
2024/04/14 05:44:33;;;;;;;4.90;4.33;;;;;;;14.95;67.47;100026.00;5451212;26;20309;-61
2024/04/14 05:47:03;;;;;;;7.82;5.03;;;;;;;14.96;67.44;100007.78;5453212;26;20234;-63
2024/04/14 05:49:31;;;;;;;5.97;4.70;;;;;;;15.03;67.37;100015.38;5452134;26;20342;-63
2024/04/14 05:52:01;;;;;;;7.07;4.70;;;;;;;15.08;67.07;100021.28;5452904;26;20234;-62
2024/04/14 05:54:29;;;;;;;7.15;5.10;;;;;;;15.15;66.96;100017.59;5452661;26;20288;-65
2024/04/14 05:56:58;;;;;;;7.28;4.40;;;;;;;15.21;67.05;100014.81;5450121;26;20262;-63
2024/04/14 05:59:26;;;;;;;5.82;4.88;;;;;;;15.27;66.65;100001.63;5450719;26;20258;-62
2024/04/14 06:01:58;;;;;;;8.48;4.68;;;;;;;15.33;66.48;99988.47;5448838;26;20253;-61
2024/04/14 06:04:25;;;;;;;6.63;4.78;;;;;;;15.41;66.67;99989.06;5449890;26;20265;-64
2024/04/14 06:06:55;;;;;;;7.88;4.82;;;;;;;15.49;66.18;99982.78;5452106;26;20294;-63
2024/04/14 06:09:23;;;;;;;6.15;5.03;;;;;;;15.58;66.15;99978.16;5451525;26;20581;-62
2024/04/14 06:11:53;;;;;;;6.00;4.57;;;;;;;15.69;66.10;99975.22;5452791;26;20265;-62
2024/04/14 06:14:21;;;;;;;7.75;4.85;;;;;;;15.83;64.94;99972.13;5453081;26;20551;-62
2024/04/14 06:16:50;;;;;;;8.00;4.88;;;;;;;15.98;64.99;99962.97;5453442;26;20234;-62
2024/04/14 06:19:20;;;;;;;5.20;4.22;;;;;;;16.12;64.36;99969.38;5449354;26;20602;-61
2024/04/14 06:21:50;;;;;;;4.90;4.50;;;;;;;16.27;63.49;99959.31;5450572;26;20749;-64
2024/04/14 06:24:19;;;;;;;6.55;4.68;;;;;;;16.45;63.40;99968.22;5453049;26;20242;-63
2024/04/14 06:26:49;;;;;;;6.68;4.55;;;;;;;16.58;62.46;99974.66;5453075;26;20657;-62
2024/04/14 06:29:16;;;;;;;5.82;4.60;;;;;;;16.70;62.12;99965.53;5449203;26;20363;-63
2024/04/14 06:31:46;;;;;;;4.43;3.97;;;;;;;16.84;61.22;99973.72;5448202;26;20242;-63
2024/04/14 06:34:13;;;;;;;5.35;4.70;;;;;;;16.94;61.19;99961.16;5452883;26;20717;-63
2024/04/14 06:36:45;;;;;;;5.72;4.40;;;;;;;16.99;61.11;99964.44;5453300;26;20267;-61
2024/04/14 06:39:12;;;;;;;5.32;4.20;;;;;;;17.04;60.52;99959.91;5452850;26;20230;-66
2024/04/14 06:41:42;;;;;;;5.70;4.72;;;;;;;17.11;60.53;99953.53;5451559;26;20705;-65
2024/04/14 06:44:10;;;;;;;4.53;4.07;;;;;;;17.19;60.59;99951.47;5452307;26;20230;-64
2024/04/14 06:46:40;;;;;;;5.00;4.40;;;;;;;17.29;59.79;99950.19;5450716;26;20358;-62
2024/04/14 06:49:10;;;;;;;6.13;4.38;;;;;;;17.41;59.30;99942.78;5447222;26;20230;-63
2024/04/14 06:51:37;;;;;;;7.95;4.15;;;;;;;17.48;59.26;99939.03;5452180;26;20235;-62
2024/04/14 06:54:10;;;;;;;3.80;3.40;;;;;;;17.60;58.86;99928.13;5449407;26;20591;-63
2024/04/14 06:56:37;;;;;;;5.75;3.75;;;;;;;17.68;58.53;99925.19;5439512;26;20234;-62
2024/04/14 06:59:07;;;;;;;5.43;3.88;;;;;;;17.79;58.68;99933.41;5452102;26;20309;-63
2024/04/14 07:01:34;;;;;;;4.55;3.90;;;;;;;17.90;58.25;99930.34;5447834;26;20246;-64
2024/04/14 07:04:04;;;;;;;4.35;3.90;;;;;;;18.00;57.56;99915.97;5452440;26;20246;-61
2024/04/14 07:06:32;;;;;;;4.38;3.75;;;;;;;18.12;58.30;99925.88;5452145;26;20710;-61
2024/04/14 07:09:02;;;;;;;5.15;3.40;;;;;;;18.24;57.67;99917.50;5447848;26;20226;-61
2024/04/14 07:11:31;;;;;;;7.00;3.67;;;;;;;18.33;57.13;99914.44;5447011;26;20243;-61
2024/04/14 07:14:01;;;;;;;5.50;3.88;;;;;;;18.38;57.04;99903.00;5449030;26;20292;-64
2024/04/14 07:16:28;;;;;;;5.65;3.92;;;;;;;18.42;56.98;99901.94;5452200;26;20723;-64
2024/04/14 07:18:58;;;;;;;5.28;3.67;;;;;;;18.46;55.98;99880.00;5451184;26;20245;-63
2024/04/14 07:21:25;;;;;;;8.00;3.80;;;;;;;18.47;55.95;99879.91;5451795;26;20230;-63
2024/04/14 07:23:55;;;;;;;7.40;4.22;;;;;;;18.47;56.62;99879.91;5438190;26;20731;-62
2024/04/14 07:26:23;;;;;;;7.10;4.22;;;;;;;18.44;56.94;99879.19;5435055;26;20230;-61
2024/04/14 07:28:56;;;;;;;5.47;3.60;;;;;;;18.46;56.39;99893.03;5447903;26;20254;-62
2024/04/14 07:31:23;;;;;;;4.95;3.60;;;;;;;18.41;56.96;99906.31;5447741;26;20339;-63
2024/04/14 07:33:59;;;;;;;3.95;3.65;;;;;;;18.48;56.54;99901.63;5450632;26;20276;-60
2024/04/14 07:36:26;;;;;;;7.88;3.90;;;;;;;18.54;56.31;99893.53;5450983;26;20573;-65
2024/04/14 07:38:56;;;;;;;4.53;3.83;;;;;;;18.60;56.35;99890.63;5449247;26;20294;-63
2024/04/14 07:41:23;;;;;;;8.15;4.10;;;;;;;18.60;56.36;99890.63;5451398;26;20277;-62
2024/04/14 07:43:56;;;;;;;4.57;4.10;;;;;;;18.66;56.53;99889.47;5449292;26;20800;-61
2024/04/14 07:46:26;;;;;;;5.38;3.70;;;;;;;18.80;56.26;99887.94;5447979;26;20339;-63
2024/04/14 07:48:56;;;;;;;4.38;3.50;;;;;;;18.93;56.31;99888.19;5450680;26;20393;-67
2024/04/14 07:51:23;;;;;;;5.25;3.33;;;;;;;19.12;55.34;99889.91;5450042;26;20289;-67
2024/04/14 07:53:53;;;;;;;6.30;3.92;;;;;;;19.16;55.05;99888.84;5448807;26;20660;-64
2024/04/14 07:56:21;;;;;;;5.05;3.40;;;;;;;19.13;55.05;99882.00;5430984;26;20646;-64
2024/04/14 07:58:51;;;;;;;4.82;3.47;;;;;;;19.12;55.84;99864.63;5442120;26;20685;-63
2024/04/14 08:01:21;;;;;;;5.05;3.65;;;;;;;19.32;55.04;99863.63;5444538;26;20255;-67
2024/04/14 08:03:51;;;;;;;7.10;3.70;;;;;;;19.58;54.71;99858.84;5451916;26;20569;-67
2024/04/14 08:06:23;;;;;;;3.88;3.47;;;;;;;19.92;53.10;99871.03;5452368;26;20601;-67
2024/04/14 08:08:53;;;;;;;6.05;3.88;;;;;;;20.02;52.65;99870.44;5452042;26;20305;-66
2024/04/14 08:11:21;;;;;;;6.90;3.85;;;;;;;20.18;52.34;99860.03;5452300;26;20221;-65
2024/04/14 08:13:50;;;;;;;6.22;3.80;;;;;;;20.60;52.01;99863.00;5450321;26;20234;-67
2024/04/14 08:16:20;;;;;;;3.92;3.20;;;;;;;20.99;49.98;99876.47;5445618;26;20744;-66
2024/04/14 08:18:50;;;;;;;8.73;3.60;;;;;;;21.09;50.03;99871.53;5451706;26;20709;-67
2024/04/14 08:21:18;;;;;;;4.47;3.30;;;;;;;21.14;49.75;99872.13;5451826;26;20234;-65
2024/04/14 08:23:48;;;;;;;5.35;3.50;;;;;;;21.35;49.54;99856.09;5451062;26;20288;-66
2024/04/14 08:26:16;;;;;;;4.28;3.30;;;;;;;21.49;48.35;99832.53;5450389;26;20257;-67
2024/04/14 08:28:46;;;;;;;5.20;3.38;;;;;;;21.74;48.42;99854.66;5438289;26;20333;-66
2024/04/14 08:31:13;;;;;;;5.68;3.65;;;;;;;21.95;47.23;99848.09;5446005;26;20253;-66
2024/04/14 08:33:46;;;;;;;6.25;3.58;;;;;;;21.84;47.61;99855.78;5450963;26;20238;-68
2024/04/14 08:36:14;;;;;;;3.90;3.17;;;;;;;21.55;48.76;99849.69;5447563;26;20284;-68
2024/04/14 08:38:44;;;;;;;5.28;2.90;;;;;;;21.62;49.22;99846.59;5451217;26;20271;-66
2024/04/14 08:41:16;;;;;;;5.28;3.53;;;;;;;21.69;48.93;99855.78;5442021;26;20400;-66
2024/04/14 08:43:47;;;;;;;5.78;3.45;;;;;;;21.38;49.54;99861.16;5449077;26;20638;-64
2024/04/14 08:46:16;;;;;;;6.25;3.80;;;;;;;20.85;50.43;99858.09;5449811;26;20297;-64
2024/04/14 08:48:49;;;;;;;4.57;3.67;;;;;;;20.36;52.01;99873.03;5451450;26;20673;-67
2024/04/14 08:51:18;;;;;;;5.80;3.50;;;;;;;19.97;53.25;99882.09;5450992;26;20233;-67
2024/04/14 08:53:53;;;;;;;5.40;3.83;;;;;;;19.70;54.12;99873.91;5448891;26;20246;-67
2024/04/14 08:56:25;;;;;;;5.85;3.45;;;;;;;19.56;55.19;99882.47;5450450;26;20413;-70
2024/04/14 08:59:04;;;;;;;6.47;4.07;;;;;;;19.72;54.71;99870.31;5451172;26;20688;-66
2024/04/14 09:01:33;;;;;;;4.32;3.45;;;;;;;19.96;54.07;99876.03;5447113;26;20620;-68
2024/04/14 09:04:08;;;;;;;4.35;3.55;;;;;;;20.08;53.48;99852.75;5448068;26;20250;-67
2024/04/14 09:06:41;;;;;;;5.20;3.90;;;;;;;20.05;53.31;99856.38;5450655;26;20342;-69
2024/04/14 09:09:11;;;;;;;6.75;3.17;;;;;;;19.81;54.26;99874.22;5451538;26;20772;-68
2024/04/14 09:11:49;;;;;;;5.45;3.72;;;;;;;19.54;55.07;99863.38;5450536;26;20250;-69
2024/04/14 09:14:22;;;;;;;4.55;3.60;;;;;;;19.45;56.08;99861.25;5443124;26;20618;-67
2024/04/14 09:16:49;;;;;;;5.75;4.07;;;;;;;19.40;56.28;99871.91;5448117;26;20610;-68
2024/04/14 09:19:24;;;;;;;4.28;3.35;;;;;;;19.30;56.71;99866.34;5441153;26;20238;-68
2024/04/14 09:21:51;;;;;;;7.30;3.72;;;;;;;19.23;56.78;99866.72;5438695;26;20246;-67
2024/04/14 09:24:22;;;;;;;4.85;3.67;;;;;;;19.17;57.49;99865.25;5448593;26;20230;-68
2024/04/14 09:26:50;;;;;;;7.88;4.03;;;;;;;19.17;57.26;99865.25;5447990;26;20350;-68
2024/04/14 09:29:20;;;;;;;8.25;3.95;;;;;;;19.29;57.71;99861.16;5450350;26;20230;-69
2024/04/14 09:31:47;;;;;;;7.18;4.35;;;;;;;19.64;56.99;99864.63;5450879;26;20639;-69
2024/04/14 09:34:18;;;;;;;6.63;4.13;;;;;;;19.95;55.77;99860.41;5449305;26;20351;-67
2024/04/14 09:36:48;;;;;;;7.20;4.32;;;;;;;20.21;55.37;99859.88;5450301;26;20272;-67
2024/04/14 09:39:21;;;;;;;5.88;4.00;;;;;;;20.56;54.39;99867.56;5443849;26;20289;-66
2024/04/14 09:41:49;;;;;;;5.35;3.55;;;;;;;20.91;53.18;99869.97;5428231;26;20569;-68
2024/04/14 09:44:22;;;;;;;8.20;4.28;;;;;;;21.00;53.19;99866.84;5449958;26;20774;-67
2024/04/14 09:46:50;;;;;;;7.63;3.67;;;;;;;21.08;53.03;99866.38;5447094;26;20289;-65
2024/04/14 09:49:28;;;;;;;5.30;4.30;;;;;;;21.20;52.92;99869.13;5445640;26;20238;-69
2024/04/14 09:51:58;;;;;;;6.68;4.07;;;;;;;21.18;52.73;99875.41;5450753;26;20241;-66
2024/04/14 09:54:31;;;;;;;5.85;3.67;;;;;;;21.16;53.07;99870.25;5449986;26;20618;-67
2024/04/14 09:57:00;;;;;;;5.57;4.22;;;;;;;21.33;52.83;99865.81;5449796;26;20234;-69
2024/04/14 09:59:30;;;;;;;6.38;4.30;;;;;;;21.38;52.18;99862.00;5448909;26;20767;-68
2024/04/14 10:01:58;;;;;;;5.70;4.60;;;;;;;21.22;52.01;99856.78;5450509;26;20725;-67
2024/04/14 10:04:28;;;;;;;5.43;4.45;;;;;;;21.04;53.01;99857.03;5449663;26;20353;-66
2024/04/14 10:06:59;;;;;;;6.38;4.50;;;;;;;20.77;53.78;99867.28;5453187;26;20234;-65
2024/04/14 10:09:30;;;;;;;9.48;4.30;;;;;;;20.59;54.16;99845.63;5453018;26;20281;-70
2024/04/14 10:12:00;;;;;;;7.82;4.45;;;;;;;20.42;54.45;99849.13;5448825;26;20371;-68
2024/04/14 10:14:30;;;;;;;6.35;4.10;;;;;;;20.27;54.69;99854.28;5453531;26;20242;-68
2024/04/14 10:16:59;;;;;;;7.45;4.30;;;;;;;20.09;54.79;99844.81;5454455;26;20293;-69
2024/04/14 10:19:29;;;;;;;11.00;4.68;;;;;;;19.87;55.55;99850.34;5451537;26;20242;-68
2024/04/14 10:22:08;;;;;;;8.50;4.30;;;;;;;19.68;56.00;99875.78;5453518;26;20344;-64
2024/04/14 10:24:47;;;;;;;7.03;4.28;;;;;;;19.57;56.85;99873.69;5453888;26;20611;-68
2024/04/14 10:27:15;;;;;;;7.80;4.25;;;;;;;19.46;57.49;99881.22;5451755;26;20355;-69
2024/04/14 10:29:46;;;;;;;6.70;4.13;;;;;;;19.47;58.12;99882.91;5453581;26;20644;-72
2024/04/14 10:32:20;;;;;;;7.43;4.00;;;;;;;19.54;57.80;99871.22;5449405;26;20322;-70
2024/04/14 10:34:50;;;;;;;5.55;4.05;;;;;;;19.59;57.89;99886.66;5452947;26;20241;-69
2024/04/14 10:37:25;;;;;;;5.72;4.35;;;;;;;19.82;57.13;99885.53;5452138;26;20631;-73
2024/04/14 10:39:56;;;;;;;7.68;4.40;;;;;;;20.13;56.64;99882.97;5446738;26;20621;-74
2024/04/14 10:42:25;;;;;;;4.55;3.70;;;;;;;20.47;55.26;99886.34;5455318;26;20789;-72
2024/04/14 10:44:55;;;;;;;9.35;3.67;;;;;;;20.84;53.78;99905.28;5444014;26;20680;-67
2024/04/14 10:47:23;;;;;;;6.10;3.60;;;;;;;21.18;51.43;99850.06;5449214;26;20349;-68
2024/04/14 10:49:53;;;;;;;6.18;3.55;;;;;;;21.43;49.46;99874.84;5454478;26;20681;-68
2024/04/14 10:52:20;;;;;;;5.25;2.85;;;;;;;21.41;47.22;99864.44;5433172;26;20774;-70
2024/04/14 10:54:53;;;;;;;5.70;3.10;;;;;;;21.32;47.45;99856.25;5453131;26;20272;-70
2024/04/14 10:57:20;;;;;;;3.35;2.88;;;;;;;21.29;47.84;99870.38;5451050;26;20288;-68
2024/04/14 10:59:51;;;;;;;5.22;2.50;;;;;;;21.18;46.77;99857.06;5433884;26;20311;-69
2024/04/14 11:02:18;;;;;;;7.03;2.95;;;;;;;21.05;46.55;99866.56;5452393;26;20813;-69
2024/04/14 11:04:48;;;;;;;9.20;3.05;;;;;;;20.82;46.64;99871.34;5449554;26;20318;-69
2024/04/14 11:07:16;;;;;;;4.82;2.65;;;;;;;20.64;46.73;99861.91;5451960;26;20767;-70
2024/04/14 11:09:46;;;;;;;5.68;2.40;;;;;;;20.49;46.94;99853.97;5449799;26;20359;-68
2024/04/14 11:12:17;;;;;;;5.65;2.60;;;;;;;20.59;47.32;99858.72;5451299;26;20273;-69
2024/04/14 11:14:48;;;;;;;2.90;2.35;;;;;;;20.67;47.59;99862.56;5452926;26;20650;-68
2024/04/14 11:17:16;;;;;;;6.70;2.67;;;;;;;20.60;47.56;99866.47;5453005;26;20246;-67
2024/04/14 11:19:49;;;;;;;8.60;2.78;;;;;;;20.46;47.41;99848.88;5452584;26;20697;-67
2024/04/14 11:22:18;;;;;;;5.53;2.40;;;;;;;20.34;48.36;99870.50;5449759;26;20258;-68
2024/04/14 11:24:52;;;;;;;4.70;2.20;;;;;;;20.21;48.10;99859.88;5446178;26;20309;-67
2024/04/14 11:27:22;;;;;;;8.13;2.05;;;;;;;20.08;47.68;99864.06;5451314;26;20234;-66
2024/04/14 11:29:52;;;;;;;6.63;2.28;;;;;;;19.93;47.23;99872.72;5444120;26;20251;-66
2024/04/14 11:32:33;;;;;;;4.90;2.00;;;;;;;19.86;48.06;99881.81;5450075;26;20663;-68
2024/04/14 11:35:05;;;;;;;7.85;2.00;;;;;;;19.75;47.48;99871.94;5452316;26;20280;-65
2024/04/14 11:37:44;;;;;;;6.05;1.92;;;;;;;19.71;47.65;99889.53;5447455;26;20641;-69
2024/04/14 11:40:15;;;;;;;3.05;1.85;;;;;;;19.68;46.74;99879.22;5449884;26;21041;-69